Time;durP1;ratioP1;P1;durP2;ratioP2;P2;SDS_P1;SDS_P2;PMS_P1;PMS_P2;Temp;Humidity;BMP_temperature;BMP_pressure;BME280_temperature;BME280_humidity;BME280_pressure;Samples;Min_cycle;Max_cycle;Signal;HPM_P1;HPM_P2
2023/02/20 00:00:52;;;;;;;11.10;8.30;;;;;;;11.09;51.81;94948.47;4197774;28;20068;-53
2023/02/20 00:02:54;;;;;;;13.30;8.95;;;;;;;11.02;52.13;94960.56;4212884;28;20456;-50
2023/02/20 00:04:56;;;;;;;12.07;8.30;;;;;;;10.99;52.41;94950.38;4212732;28;20474;-51
2023/02/20 00:06:58;;;;;;;12.23;8.40;;;;;;;10.97;52.42;94955.81;4187985;28;20130;-55
2023/02/20 00:08:59;;;;;;;12.90;8.82;;;;;;;10.86;52.75;94958.66;4179516;28;20727;-56
2023/02/20 00:11:01;;;;;;;12.02;8.20;;;;;;;10.78;53.17;94959.44;4184945;28;20439;-52
2023/02/20 00:13:03;;;;;;;12.88;9.00;;;;;;;10.80;52.91;94948.81;4205251;28;20101;-51
2023/02/20 00:15:05;;;;;;;13.45;8.23;;;;;;;10.80;52.83;94951.44;4199479;28;20044;-56
2023/02/20 00:17:06;;;;;;;11.77;8.15;;;;;;;10.75;53.20;94953.69;4207319;28;20570;-51
2023/02/20 00:19:08;;;;;;;13.73;9.52;;;;;;;10.75;53.40;94946.63;4190547;28;20049;-54
2023/02/20 00:21:10;;;;;;;15.13;8.57;;;;;;;10.81;53.51;94959.13;4180559;28;20057;-53
2023/02/20 00:23:11;;;;;;;14.65;8.65;;;;;;;10.70;53.92;94938.44;4193449;28;20079;-51
2023/02/20 00:25:15;;;;;;;13.00;8.65;;;;;;;10.59;54.51;94949.16;4184594;28;20624;-53
2023/02/20 00:27:17;;;;;;;;;;;;;;;10.63;54.53;94953.13;4203733;28;20062;-50
2023/02/20 00:29:21;;;;;;;11.95;8.13;;;;;;;10.63;54.19;94942.66;4212250;28;19920;-52
2023/02/20 00:31:22;;;;;;;13.05;8.48;;;;;;;10.61;54.53;94949.84;4208293;28;20047;-53
2023/02/20 00:33:24;;;;;;;12.82;8.55;;;;;;;10.58;54.46;94947.50;4200827;28;20040;-52
2023/02/20 00:35:26;;;;;;;15.27;9.90;;;;;;;10.65;54.46;94944.13;4211812;28;20075;-54
2023/02/20 00:37:28;;;;;;;13.65;9.02;;;;;;;10.71;54.19;94940.09;4212359;28;20509;-53
2023/02/20 00:39:30;;;;;;;11.75;8.32;;;;;;;10.74;54.43;94941.56;4211159;28;20052;-54
2023/02/20 00:41:32;;;;;;;13.82;8.85;;;;;;;10.73;54.29;94939.91;4202519;28;20076;-53
2023/02/20 00:43:35;;;;;;;12.57;9.07;;;;;;;10.78;54.15;94927.19;4212390;28;20101;-52
2023/02/20 00:45:37;;;;;;;13.38;9.10;;;;;;;10.78;54.05;94943.72;4211788;28;20055;-55
2023/02/20 00:47:38;;;;;;;13.63;9.15;;;;;;;10.75;54.29;94944.00;4184668;28;20111;-59
2023/02/20 00:49:40;;;;;;;13.80;8.95;;;;;;;10.67;54.29;94946.59;4212133;28;20466;-58
2023/02/20 00:51:42;;;;;;;12.13;8.43;;;;;;;10.64;54.74;94958.19;4212032;28;20044;-59
2023/02/20 00:53:43;;;;;;;13.20;9.05;;;;;;;10.65;54.56;94969.50;4211924;28;20052;-59
2023/02/20 00:55:45;;;;;;;12.35;8.85;;;;;;;10.64;54.57;94966.06;4203888;28;20064;-59
2023/02/20 00:57:47;;;;;;;13.50;9.65;;;;;;;10.65;54.89;94964.28;4196291;28;20712;-59
2023/02/20 00:59:48;;;;;;;16.33;9.45;;;;;;;10.60;54.55;94962.13;4212201;28;20482;-59
2023/02/20 01:01:50;;;;;;;15.15;9.55;;;;;;;10.58;54.64;94971.94;4198822;28;20110;-57
2023/02/20 01:03:52;;;;;;;14.85;8.68;;;;;;;10.55;54.67;94977.44;4197302;28;20052;-58
2023/02/20 01:05:53;;;;;;;12.20;8.70;;;;;;;10.49;54.94;94977.25;4199738;28;20482;-55
2023/02/20 01:07:55;;;;;;;14.20;10.05;;;;;;;10.40;55.32;94997.31;4192953;28;20056;-60
2023/02/20 01:09:57;;;;;;;13.27;8.95;;;;;;;10.42;55.48;94993.56;4184888;28;20102;-58
2023/02/20 01:11:58;;;;;;;16.48;9.38;;;;;;;10.29;56.03;94989.66;4196421;28;20135;-59
2023/02/20 01:14:00;;;;;;;15.02;9.18;;;;;;;10.28;55.77;94982.75;4211821;28;20048;-61
2023/02/20 01:16:02;;;;;;;12.43;8.80;;;;;;;10.28;56.22;94985.38;4210304;28;20807;-59
2023/02/20 01:18:04;;;;;;;14.65;9.52;;;;;;;10.24;55.94;94990.09;4211809;28;20075;-60
2023/02/20 01:20:07;;;;;;;14.15;9.32;;;;;;;10.18;56.32;94978.41;4200757;28;20087;-59
2023/02/20 01:22:09;;;;;;;16.83;9.55;;;;;;;10.16;56.15;94982.97;4193677;28;20098;-60
2023/02/20 01:24:11;;;;;;;14.07;9.05;;;;;;;10.21;56.58;94993.81;4178995;28;20057;-60
2023/02/20 01:26:13;;;;;;;12.00;8.40;;;;;;;10.22;56.37;94990.25;4187129;28;20056;-60
2023/02/20 01:28:15;;;;;;;13.38;9.60;;;;;;;10.14;57.05;94998.00;4195327;28;20055;-59
2023/02/20 01:30:17;;;;;;;12.75;8.82;;;;;;;10.17;56.62;94992.47;4195425;28;20056;-58
2023/02/20 01:32:19;;;;;;;13.13;9.52;;;;;;;10.10;57.01;94996.66;4188007;28;20148;-58
2023/02/20 01:34:21;;;;;;;13.45;9.52;;;;;;;10.08;56.98;95003.03;4181544;28;20087;-59
2023/02/20 01:36:22;;;;;;;15.70;10.88;;;;;;;10.15;56.80;95012.78;4207498;28;20082;-58
2023/02/20 01:38:24;;;;;;;13.73;9.38;;;;;;;10.14;56.72;95011.09;4198631;28;20055;-59
2023/02/20 01:40:26;;;;;;;13.50;10.18;;;;;;;10.10;57.25;95012.38;4199214;28;20084;-58
2023/02/20 01:42:29;;;;;;;16.25;9.90;;;;;;;10.22;56.73;95020.84;4195980;28;20378;-60
2023/02/20 01:44:35;;;;;;;16.52;10.35;;;;;;;10.18;57.62;95020.31;4211495;28;20052;-59
2023/02/20 01:46:37;;;;;;;13.70;9.80;;;;;;;10.12;57.37;95026.13;4212535;28;20043;-59
2023/02/20 01:48:39;;;;;;;15.07;10.68;;;;;;;10.14;57.82;95028.63;4214132;28;20040;-57
2023/02/20 01:50:42;;;;;;;13.50;9.93;;;;;;;10.10;57.88;95040.34;4213518;28;20086;-57
2023/02/20 01:52:45;;;;;;;14.83;10.93;;;;;;;10.04;57.89;95021.66;4198707;28;20048;-58
2023/02/20 01:54:51;;;;;;;14.63;9.80;;;;;;;10.09;58.11;95018.59;4196824;28;20323;-58
2023/02/20 01:56:55;;;;;;;14.75;10.10;;;;;;;10.07;58.19;95017.91;4202791;28;20623;-60
2023/02/20 01:58:57;;;;;;;14.20;10.52;;;;;;;9.98;58.92;95026.63;4192473;28;20133;-59
2023/02/20 02:00:59;;;;;;;17.25;10.73;;;;;;;9.92;58.74;95046.38;4193658;28;20106;-60
2023/02/20 02:03:24;;;;;;;14.95;10.35;;;;;;;9.84;59.48;95039.25;4179868;28;20072;-56
2023/02/20 02:05:27;;;;;;;19.40;10.65;;;;;;;9.69;59.79;95037.28;4181531;28;20483;-58
2023/02/20 02:07:29;;;;;;;16.98;10.13;;;;;;;9.77;59.97;95037.38;4194844;28;20087;-56
2023/02/20 02:09:59;;;;;;;12.02;8.50;;;;;;;9.71;59.24;95036.16;4201142;28;20044;-61
2023/02/20 02:12:00;;;;;;;10.48;8.07;;;;;;;9.75;59.20;95053.22;4194871;28;20041;-60
2023/02/20 02:14:02;;;;;;;10.55;7.57;;;;;;;9.69;59.08;95039.88;4194420;28;20529;-59
2023/02/20 02:16:34;;;;;;;11.55;7.10;;;;;;;9.73;58.47;95044.69;4194377;28;20048;-58
2023/02/20 02:18:48;;;;;;;7.78;5.75;;;;;;;9.52;58.89;95028.41;4181097;28;20099;-57
2023/02/20 02:21:18;;;;;;;9.20;5.93;;;;;;;9.57;58.63;95040.09;4198907;28;20482;-60
2023/02/20 02:23:38;;;;;;;8.43;5.78;;;;;;;9.55;58.34;95030.72;4205910;28;20509;-60
2023/02/20 02:25:52;;;;;;;9.30;5.07;;;;;;;9.57;58.23;95034.84;4187251;28;20132;-59
2023/02/20 02:28:00;;;;;;;8.02;5.25;;;;;;;9.65;57.94;95034.13;4201419;28;20461;-58
2023/02/20 02:30:37;;;;;;;6.15;4.30;;;;;;;9.52;57.61;95052.75;4191209;28;20060;-58
2023/02/20 02:32:45;;;;;;;6.78;4.70;;;;;;;9.51;58.20;95045.06;4201852;28;20068;-59
2023/02/20 02:35:05;;;;;;;6.35;3.90;;;;;;;9.51;57.56;95051.13;4207122;28;20066;-57
2023/02/20 02:37:07;;;;;;;6.60;3.47;;;;;;;9.34;58.01;95063.16;4205214;28;20055;-60
2023/02/20 02:39:33;;;;;;;5.13;3.40;;;;;;;9.28;58.73;95068.13;4195051;28;20052;-60
2023/02/20 02:41:57;;;;;;;4.10;3.08;;;;;;;9.29;58.39;95060.16;4202209;28;20051;-59
2023/02/20 02:44:06;;;;;;;4.97;3.65;;;;;;;9.31;58.52;95052.16;4168552;28;20511;-53
2023/02/20 02:46:32;;;;;;;4.88;3.22;;;;;;;9.31;58.93;95062.59;4193327;28;20104;-56
2023/02/20 02:49:20;;;;;;;4.90;3.67;;;;;;;9.23;59.34;95058.09;4184605;28;20044;-56
2023/02/20 02:51:29;;;;;;;5.70;3.75;;;;;;;9.22;59.14;95069.50;4167526;28;20084;-53
2023/02/20 02:53:30;;;;;;;4.70;3.33;;;;;;;9.15;59.63;95065.81;4189515;28;20042;-53
2023/02/20 02:55:32;;;;;;;4.28;3.33;;;;;;;9.24;58.96;95064.97;4189766;28;20135;-53
2023/02/20 02:57:34;;;;;;;5.07;3.30;;;;;;;9.13;59.38;95067.75;4208736;28;20048;-50
2023/02/20 02:59:36;;;;;;;5.18;3.40;;;;;;;9.17;59.22;95056.03;4212175;28;20044;-51
2023/02/20 03:01:45;;;;;;;4.45;3.17;;;;;;;9.12;59.39;95059.09;4210854;28;20079;-58
2023/02/20 03:03:48;;;;;;;3.92;2.90;;;;;;;9.11;58.45;95048.78;4210941;28;20131;-56
2023/02/20 03:05:56;;;;;;;5.75;3.60;;;;;;;9.11;58.62;95062.66;4209990;28;20183;-57
2023/02/20 03:07:58;;;;;;;3.85;2.88;;;;;;;8.98;59.59;95062.94;4212239;28;20052;-58
2023/02/20 03:10:02;;;;;;;4.10;2.90;;;;;;;8.92;58.83;95053.06;4210595;28;20059;-59
2023/02/20 03:12:05;;;;;;;3.72;2.65;;;;;;;9.03;59.25;95059.91;4190937;28;20073;-60
2023/02/20 03:17:03;;;;;;;3.67;2.78;;;;;;;8.91;58.84;95061.88;4211160;28;20586;-58
2023/02/20 03:19:08;;;;;;;3.58;2.70;;;;;;;8.94;58.58;95066.00;4213578;28;20490;-59
2023/02/20 03:21:14;;;;;;;3.75;2.72;;;;;;;8.99;58.92;95079.44;4198351;28;20049;-60
2023/02/20 03:23:20;;;;;;;3.42;2.45;;;;;;;9.04;58.68;95077.25;4205433;28;20075;-60
2023/02/20 03:25:27;;;;;;;3.88;2.53;;;;;;;9.00;58.73;95091.56;4212110;28;20066;-60
2023/02/20 03:27:41;;;;;;;4.18;2.50;;;;;;;8.95;58.14;95085.94;4213574;28;20055;-62
2023/02/20 03:29:43;;;;;;;3.42;2.50;;;;;;;8.95;58.38;95089.38;4192692;28;20053;-61
2023/02/20 03:31:49;;;;;;;3.92;2.45;;;;;;;8.95;58.66;95099.81;4204297;28;20052;-59
2023/02/20 03:43:34;;;;;;;3.65;2.38;;;;;;;9.03;57.54;95114.78;4192056;28;20048;-60
2023/02/20 03:45:38;;;;;;;5.20;2.60;;;;;;;9.01;57.81;95095.81;4195125;28;20052;-61
2023/02/20 03:47:43;;;;;;;4.60;2.95;;;;;;;8.99;58.23;95105.56;4193946;28;20056;-59
2023/02/20 03:52:06;;;;;;;4.38;2.88;;;;;;;8.96;57.68;95114.53;4191883;28;20102;-59
2023/02/20 03:54:10;;;;;;;4.35;2.53;;;;;;;8.81;57.66;95105.47;4194292;28;20090;-57
2023/02/20 03:56:18;;;;;;;3.08;2.30;;;;;;;8.81;58.61;95113.31;4180398;28;20067;-56
2023/02/20 03:58:22;;;;;;;4.47;2.33;;;;;;;8.72;58.49;95128.00;4180021;28;20045;-58
2023/02/20 04:00:28;;;;;;;5.38;2.50;;;;;;;8.74;58.52;95138.34;4193288;28;20135;-57
2023/02/20 04:02:33;;;;;;;3.28;1.98;;;;;;;8.88;57.64;95131.84;4193897;28;20135;-57
2023/02/20 04:04:41;;;;;;;3.20;2.20;;;;;;;8.90;57.72;95125.53;4195177;28;20047;-57
2023/02/20 04:06:44;;;;;;;3.90;2.55;;;;;;;8.89;57.44;95136.13;4184593;28;20075;-58
2023/02/20 04:08:58;;;;;;;2.80;1.90;;;;;;;8.85;57.56;95132.16;4193985;28;20705;-59
2023/02/20 04:11:05;;;;;;;3.95;2.20;;;;;;;8.81;57.36;95132.41;4187297;28;20060;-60
2023/02/20 04:13:07;;;;;;;4.78;2.67;;;;;;;8.73;57.85;95139.28;4183165;28;20076;-60
2023/02/20 04:15:10;;;;;;;4.97;2.22;;;;;;;8.77;57.86;95124.97;4182653;28;20055;-59
2023/02/20 04:17:16;;;;;;;2.88;2.00;;;;;;;8.87;57.57;95123.19;4192924;28;20588;-57
2023/02/20 04:19:17;;;;;;;4.03;2.50;;;;;;;8.91;57.11;95134.22;4184442;28;20102;-56
2023/02/20 04:21:24;;;;;;;4.32;2.10;;;;;;;8.89;57.37;95118.66;4186319;28;20079;-57
2023/02/20 04:23:27;;;;;;;3.03;2.10;;;;;;;8.92;57.74;95133.25;4196142;28;20426;-58
2023/02/20 04:25:34;;;;;;;2.80;2.00;;;;;;;8.85;57.53;95117.28;4182653;28;20099;-60
2023/02/20 04:27:35;;;;;;;3.88;2.75;;;;;;;8.78;57.54;95130.06;4201175;28;20111;-60
2023/02/20 04:29:37;;;;;;;4.15;2.80;;;;;;;8.64;58.34;95135.69;4200226;28;20135;-58
2023/02/20 04:31:39;;;;;;;4.15;2.80;;;;;;;8.70;57.86;95150.00;4184727;28;20114;-57
2023/02/20 04:33:40;;;;;;;5.32;2.60;;;;;;;8.66;58.96;95153.84;4193709;28;20555;-56
2023/02/20 04:35:42;;;;;;;6.38;3.10;;;;;;;8.72;58.14;95150.69;4189150;28;20091;-58
2023/02/20 04:37:44;;;;;;;3.72;2.63;;;;;;;8.73;58.43;95145.34;4179540;28;20577;-59
2023/02/20 04:39:45;;;;;;;4.35;2.70;;;;;;;8.69;58.18;95143.97;4180532;28;20135;-60
2023/02/20 04:41:47;;;;;;;3.72;2.67;;;;;;;8.72;58.34;95141.06;4189911;28;20566;-59
2023/02/20 04:43:49;;;;;;;3.47;2.42;;;;;;;8.69;57.80;95136.13;4193328;28;20078;-58
2023/02/20 04:45:51;;;;;;;3.28;2.20;;;;;;;8.63;56.96;95141.91;4207849;28;20047;-55
2023/02/20 04:47:53;;;;;;;5.35;2.40;;;;;;;8.59;57.20;95130.06;4211072;28;20048;-57
2023/02/20 04:49:54;;;;;;;3.30;2.35;;;;;;;8.64;56.92;95140.09;4212283;28;20070;-55
2023/02/20 04:51:56;;;;;;;3.28;2.10;;;;;;;8.67;56.38;95113.69;4212144;28;20050;-58
2023/02/20 04:53:58;;;;;;;3.38;2.20;;;;;;;8.49;56.24;95124.81;4211037;28;20048;-59
2023/02/20 04:55:59;;;;;;;2.78;1.90;;;;;;;8.47;56.21;95152.84;4211008;28;20139;-59
2023/02/20 04:58:01;;;;;;;2.72;2.10;;;;;;;8.51;55.80;95149.00;4211506;28;20138;-59
2023/02/20 05:00:04;;;;;;;3.20;1.90;;;;;;;8.49;56.10;95155.34;4211594;28;20052;-59
2023/02/20 05:02:05;;;;;;;3.67;1.90;;;;;;;8.48;55.78;95159.75;4209909;28;20058;-58
2023/02/20 05:04:10;;;;;;;3.85;1.90;;;;;;;8.45;55.37;95156.56;4211717;28;20051;-56
2023/02/20 05:06:12;;;;;;;3.03;2.20;;;;;;;8.38;55.74;95161.47;4211447;28;20075;-58
2023/02/20 05:08:13;;;;;;;2.60;1.95;;;;;;;8.43;55.42;95171.53;4211164;28;20044;-59
2023/02/20 05:10:17;;;;;;;2.85;2.00;;;;;;;8.43;55.51;95176.75;4210359;28;20083;-61
2023/02/20 05:12:19;;;;;;;6.60;2.50;;;;;;;8.32;55.47;95180.28;4204307;28;20154;-59
2023/02/20 05:14:20;;;;;;;4.40;1.98;;;;;;;8.37;55.08;95172.88;4212848;28;20169;-60
2023/02/20 05:16:22;;;;;;;6.20;2.10;;;;;;;8.35;54.83;95187.84;4209891;28;20581;-60
2023/02/20 05:18:25;;;;;;;4.28;2.15;;;;;;;8.29;54.26;95177.94;4213677;28;20044;-60
2023/02/20 05:22:47;;;;;;;3.67;2.15;;;;;;;8.21;54.58;95195.06;4194472;28;20334;-62
2023/02/20 05:24:50;;;;;;;3.15;2.20;;;;;;;8.16;54.45;95197.28;4205176;28;20530;-59
2023/02/20 05:26:52;;;;;;;3.77;2.50;;;;;;;8.14;55.40;95188.75;4198810;28;20052;-59
2023/02/20 05:28:54;;;;;;;2.63;2.20;;;;;;;8.15;54.79;95198.25;4183618;28;20125;-61
2023/02/20 05:30:55;;;;;;;4.75;2.08;;;;;;;8.15;54.68;95197.38;4182183;28;20053;-59
2023/02/20 05:32:57;;;;;;;4.88;2.53;;;;;;;8.25;55.04;95189.59;4193504;28;20156;-59
2023/02/20 05:34:58;;;;;;;3.35;2.50;;;;;;;8.29;54.39;95191.00;4187524;28;20083;-60
2023/02/20 05:37:00;;;;;;;4.50;2.65;;;;;;;8.24;55.00;95208.81;4187052;28;20062;-62
2023/02/20 05:39:03;;;;;;;3.47;3.17;;;;;;;8.27;55.59;95214.63;4192273;28;20132;-58
2023/02/20 05:41:04;;;;;;;5.13;3.80;;;;;;;8.29;55.47;95217.09;4182956;28;20053;-61
2023/02/20 05:43:06;;;;;;;4.68;3.85;;;;;;;8.30;56.10;95218.75;4192132;28;20052;-58
2023/02/20 05:45:08;;;;;;;6.43;4.18;;;;;;;8.43;55.15;95213.31;4211508;28;20051;-58
2023/02/20 05:47:10;;;;;;;5.10;3.90;;;;;;;8.52;55.50;95217.75;4197839;28;20052;-58
2023/02/20 05:49:11;;;;;;;6.53;4.15;;;;;;;8.39;56.05;95215.34;4204843;28;20681;-56
2023/02/20 05:51:24;;;;;;;7.38;4.45;;;;;;;8.54;55.29;95210.59;4188969;28;20485;-61
2023/02/20 05:53:32;;;;;;;6.65;4.43;;;;;;;8.54;55.48;95201.00;4194444;28;20392;-61
2023/02/20 05:55:34;;;;;;;5.18;4.10;;;;;;;8.66;55.49;95199.06;4194458;28;20060;-58
2023/02/20 05:57:35;;;;;;;4.70;4.20;;;;;;;8.76;55.14;95206.94;4200338;28;20090;-61
2023/02/20 05:59:37;;;;;;;5.05;4.20;;;;;;;8.75;54.63;95202.66;4195972;28;20060;-59
2023/02/20 06:01:39;;;;;;;5.50;4.43;;;;;;;8.76;55.12;95210.38;4190343;28;20052;-60
2023/02/20 06:03:41;;;;;;;6.53;3.85;;;;;;;8.74;54.65;95201.03;4199519;28;20052;-59
2023/02/20 06:05:42;;;;;;;4.45;3.28;;;;;;;8.78;53.75;95207.63;4188351;28;20426;-60
2023/02/20 06:07:45;;;;;;;4.22;3.10;;;;;;;8.73;53.16;95194.97;4188863;28;20385;-60
2023/02/20 06:09:48;;;;;;;4.53;3.05;;;;;;;8.73;53.37;95226.31;4191768;28;20060;-64
2023/02/20 06:11:52;;;;;;;4.15;3.33;;;;;;;8.81;52.25;95215.19;4195872;28;20048;-62
2023/02/20 06:13:53;;;;;;;6.57;2.97;;;;;;;8.80;51.63;95226.59;4192348;28;20056;-60
2023/02/20 06:15:55;;;;;;;4.20;2.90;;;;;;;8.92;52.16;95222.91;4185173;28;20072;-59
2023/02/20 06:17:56;;;;;;;4.13;3.00;;;;;;;8.87;52.28;95240.78;4181449;28;20045;-58
2023/02/20 06:19:58;;;;;;;6.80;3.20;;;;;;;8.90;51.88;95237.88;4197714;28;20090;-60
2023/02/20 06:22:00;;;;;;;7.00;3.13;;;;;;;8.96;51.76;95216.44;4196010;28;20619;-59
2023/02/20 06:24:02;;;;;;;4.07;3.08;;;;;;;8.99;51.75;95215.34;4197397;28;20437;-61
2023/02/20 06:26:05;;;;;;;9.07;3.47;;;;;;;9.09;51.55;95221.41;4184500;28;20497;-60
2023/02/20 06:28:06;;;;;;;4.60;3.30;;;;;;;9.10;51.14;95232.66;4181763;28;20045;-62
2023/02/20 06:30:09;;;;;;;3.75;2.70;;;;;;;9.21;51.53;95219.50;4188447;28;20053;-60
2023/02/20 06:32:11;;;;;;;4.30;2.83;;;;;;;9.29;50.96;95231.84;4185706;28;20136;-60
2023/02/20 06:34:24;;;;;;;7.70;3.10;;;;;;;9.32;50.67;95223.75;4208833;28;20048;-60
2023/02/20 06:36:31;;;;;;;3.90;2.80;;;;;;;9.19;50.32;95237.91;4207630;28;20105;-60
2023/02/20 06:38:35;;;;;;;7.40;2.97;;;;;;;9.18;50.41;95231.06;4201132;28;20595;-61
2023/02/20 06:40:37;;;;;;;5.15;2.97;;;;;;;9.25;50.33;95241.78;4204394;28;20049;-62
2023/02/20 06:42:39;;;;;;;4.30;3.03;;;;;;;9.11;49.88;95234.34;4210052;28;20044;-60
2023/02/20 06:44:41;;;;;;;5.00;2.70;;;;;;;9.14;50.92;95244.50;4198687;28;20044;-60
2023/02/20 06:46:43;;;;;;;8.30;3.22;;;;;;;9.07;50.89;95249.44;4196770;28;20438;-59
2023/02/20 06:48:46;;;;;;;4.07;3.03;;;;;;;8.94;50.79;95260.16;4192322;28;20048;-59
2023/02/20 06:50:48;;;;;;;6.07;3.25;;;;;;;8.90;50.61;95247.50;4212470;28;20482;-59
2023/02/20 06:52:49;;;;;;;5.28;3.50;;;;;;;8.92;50.44;95245.59;4213801;28;20052;-59
2023/02/20 06:54:53;;;;;;;7.53;3.60;;;;;;;9.01;50.63;95252.59;4213677;28;20079;-55
2023/02/20 06:56:55;;;;;;;4.55;3.58;;;;;;;8.99;51.28;95252.75;4200052;28;20056;-53
2023/02/20 06:58:57;;;;;;;5.15;3.40;;;;;;;8.82;50.88;95248.19;4210486;28;20564;-58
2023/02/20 07:00:59;;;;;;;4.05;3.33;;;;;;;8.80;50.99;95248.31;4211445;28;20048;-56
2023/02/20 07:03:01;;;;;;;4.82;3.10;;;;;;;8.92;51.45;95256.84;4213314;28;20497;-55
2023/02/20 07:05:03;;;;;;;5.38;3.22;;;;;;;8.88;50.65;95260.69;4212204;28;20084;-56
2023/02/20 07:07:05;;;;;;;4.88;3.15;;;;;;;8.97;50.92;95259.91;4212231;28;20055;-55
2023/02/20 07:09:07;;;;;;;5.93;3.90;;;;;;;9.04;49.75;95264.59;4213313;28;20127;-53
2023/02/20 07:11:09;;;;;;;4.43;3.00;;;;;;;9.11;48.64;95258.69;4203809;28;20498;-55
2023/02/20 07:13:11;;;;;;;6.88;3.05;;;;;;;9.07;49.08;95272.97;4208996;28;20052;-55
2023/02/20 07:15:12;;;;;;;4.43;3.38;;;;;;;9.25;49.42;95272.31;4187487;28;20044;-56
2023/02/20 07:17:14;;;;;;;5.30;2.70;;;;;;;9.24;47.99;95289.78;4211990;28;20044;-56
2023/02/20 07:19:16;;;;;;;6.72;2.58;;;;;;;9.05;47.77;95321.13;4213367;28;20079;-59
2023/02/20 07:21:17;;;;;;;4.25;2.10;;;;;;;9.00;47.41;95285.75;4206027;28;20402;-61
2023/02/20 07:23:20;;;;;;;8.20;2.28;;;;;;;9.06;47.36;95286.19;4213200;28;20059;-61
2023/02/20 07:25:21;;;;;;;5.40;2.55;;;;;;;9.27;47.45;95270.38;4213443;28;20048;-61
2023/02/20 07:27:23;;;;;;;6.57;2.50;;;;;;;9.10;47.05;95284.94;4212893;28;20591;-60
2023/02/20 07:29:25;;;;;;;5.45;1.90;;;;;;;9.09;47.20;95265.00;4183755;28;20061;-60
2023/02/20 07:31:27;;;;;;;3.38;1.90;;;;;;;9.05;46.51;95266.25;4178768;28;20131;-61
2023/02/20 07:33:29;;;;;;;6.95;2.42;;;;;;;9.18;46.71;95295.56;4179746;28;20052;-62
2023/02/20 07:35:30;;;;;;;4.32;2.25;;;;;;;9.00;47.44;95279.72;4191771;28;20483;-60
2023/02/20 07:37:49;;;;;;;5.35;1.80;;;;;;;8.89;46.53;95293.72;4184469;28;20039;-60
2023/02/20 07:39:51;;;;;;;8.13;1.92;;;;;;;8.75;47.22;95268.78;4189226;28;20084;-60
2023/02/20 07:41:52;;;;;;;5.47;2.10;;;;;;;8.76;46.61;95264.41;4182910;28;20080;-60
2023/02/20 07:43:55;;;;;;;3.97;2.08;;;;;;;8.85;46.73;95283.69;4206553;28;20079;-61
2023/02/20 07:45:56;;;;;;;3.85;1.85;;;;;;;8.88;46.91;95286.00;4188238;28;20463;-60
2023/02/20 07:47:58;;;;;;;3.30;1.75;;;;;;;8.94;45.95;95307.19;4185203;28;20099;-58
2023/02/20 07:50:00;;;;;;;4.28;2.00;;;;;;;9.03;45.77;95295.13;4185320;28;20569;-60
2023/02/20 07:52:02;;;;;;;2.72;1.65;;;;;;;8.97;45.88;95299.13;4198504;28;20054;-60
2023/02/20 07:54:04;;;;;;;4.68;1.83;;;;;;;9.02;45.85;95323.03;4189229;28;20048;-59
2023/02/20 07:56:06;;;;;;;6.95;2.25;;;;;;;9.07;45.90;95298.28;4192394;28;20470;-60
2023/02/20 07:58:08;;;;;;;4.30;1.90;;;;;;;9.02;45.41;95303.94;4193746;28;20048;-59
2023/02/20 08:00:13;;;;;;;2.72;1.50;;;;;;;9.06;45.79;95304.50;4190363;28;20088;-57
2023/02/20 08:02:15;;;;;;;6.63;1.90;;;;;;;9.07;45.76;95306.94;4183637;28;20483;-60
2023/02/20 08:04:16;;;;;;;2.03;1.33;;;;;;;9.16;45.77;95305.31;4185103;28;20052;-57
2023/02/20 08:06:19;;;;;;;2.13;1.42;;;;;;;9.19;45.93;95299.84;4195620;28;20616;-57
2023/02/20 08:08:23;;;;;;;2.85;1.60;;;;;;;9.33;45.62;95301.22;4198844;28;20052;-61
2023/02/20 08:10:26;;;;;;;4.57;1.55;;;;;;;9.45;44.61;95307.16;4199615;28;20106;-60
2023/02/20 08:12:28;;;;;;;2.97;1.45;;;;;;;9.54;44.39;95298.47;4203009;28;20062;-62
2023/02/20 08:14:30;;;;;;;2.75;1.23;;;;;;;9.61;44.62;95295.19;4201794;28;20084;-60
2023/02/20 08:16:32;;;;;;;3.20;1.73;;;;;;;9.70;43.56;95285.69;4207622;28;20074;-60
2023/02/20 08:18:34;;;;;;;3.45;1.50;;;;;;;9.72;43.83;95303.81;4203938;28;20097;-60
2023/02/20 08:20:36;;;;;;;7.35;1.38;;;;;;;9.82;44.12;95302.03;4210785;28;20051;-59
2023/02/20 08:22:37;;;;;;;3.55;1.50;;;;;;;9.86;43.58;95305.22;4191810;28;20053;-57
2023/02/20 08:24:42;;;;;;;7.30;1.27;;;;;;;9.77;43.78;95328.63;4179369;28;20060;-54
2023/02/20 08:26:47;;;;;;;4.22;1.15;;;;;;;9.84;43.78;95324.47;4179492;28;20056;-58
2023/02/20 08:28:50;;;;;;;5.82;1.42;;;;;;;9.74;44.36;95326.25;4211094;28;20048;-58
2023/02/20 08:30:51;;;;;;;6.45;1.13;;;;;;;9.70;44.00;95301.38;4210776;28;20059;-59
2023/02/20 08:32:54;;;;;;;1.83;1.17;;;;;;;9.69;44.22;95331.09;4211898;28;20052;-55
2023/02/20 08:34:56;;;;;;;1.55;0.95;;;;;;;9.78;43.89;95322.41;4210999;28;20446;-56
2023/02/20 08:36:57;;;;;;;5.50;1.00;;;;;;;9.72;44.32;95325.59;4186328;28;20071;-57
2023/02/20 08:38:59;;;;;;;4.85;1.02;;;;;;;9.60;44.28;95300.53;4203490;28;20068;-57
2023/02/20 08:41:09;;;;;;;5.55;1.10;;;;;;;9.50;44.57;95315.41;4198318;28;20442;-58
2023/02/20 08:43:11;;;;;;;3.53;1.17;;;;;;;9.59;44.56;95311.94;4204361;28;20044;-54
2023/02/20 08:45:13;;;;;;;4.43;1.23;;;;;;;9.68;44.34;95316.38;4201533;28;20073;-57
2023/02/20 08:47:18;;;;;;;2.53;1.00;;;;;;;9.64;44.07;95300.13;4213358;28;20583;-56
2023/02/20 08:49:20;;;;;;;4.78;1.05;;;;;;;9.69;44.44;95307.56;4203286;28;20070;-53
2023/02/20 08:51:25;;;;;;;2.67;1.10;;;;;;;9.75;44.60;95296.53;4186380;28;20136;-53
2023/02/20 08:53:27;;;;;;;3.70;0.93;;;;;;;9.98;43.66;95309.31;4199194;28;20049;-54
2023/02/20 08:55:28;;;;;;;3.13;1.00;;;;;;;10.10;43.47;95317.84;4189455;28;20079;-53
2023/02/20 08:57:30;;;;;;;5.05;1.05;;;;;;;10.13;43.32;95302.69;4182784;28;20044;-54
2023/02/20 08:59:32;;;;;;;2.38;1.00;;;;;;;10.29;42.86;95312.59;4196374;28;20044;-54
2023/02/20 09:01:33;;;;;;;2.25;1.15;;;;;;;10.28;42.44;95310.06;4181632;28;20629;-55
2023/02/20 09:03:40;;;;;;;5.88;1.60;;;;;;;10.00;43.28;95304.75;4192650;28;20102;-56
2023/02/20 09:05:42;;;;;;;2.13;1.30;;;;;;;10.18;42.98;95312.72;4188737;28;20053;-55
2023/02/20 09:07:44;;;;;;;4.13;0.82;;;;;;;9.98;43.16;95310.16;4184621;28;20103;-54
2023/02/20 09:09:46;;;;;;;3.08;1.25;;;;;;;9.89;42.95;95303.13;4191645;28;20102;-56
2023/02/20 09:11:48;;;;;;;1.60;0.77;;;;;;;10.09;42.64;95306.56;4199776;28;20132;-56
2023/02/20 09:13:50;;;;;;;1.45;0.80;;;;;;;10.24;42.55;95312.16;4215295;28;20056;-57
2023/02/20 09:15:51;;;;;;;5.15;0.80;;;;;;;10.20;41.85;95310.78;4214410;28;20075;-56
2023/02/20 09:17:53;;;;;;;2.75;1.20;;;;;;;10.15;42.95;95298.13;4203432;28;20049;-57
2023/02/20 09:19:55;;;;;;;2.97;0.88;;;;;;;10.27;42.24;95311.06;4198481;28;20169;-53
2023/02/20 09:21:57;;;;;;;3.88;0.95;;;;;;;10.32;41.66;95301.81;4194779;28;20070;-57
2023/02/20 09:23:58;;;;;;;4.10;0.82;;;;;;;10.21;42.56;95302.78;4182487;28;20049;-56
2023/02/20 09:26:00;;;;;;;3.58;1.00;;;;;;;10.19;42.76;95299.47;4182140;28;20053;-55
2023/02/20 09:28:02;;;;;;;2.35;1.00;;;;;;;10.24;42.71;95305.13;4181149;28;20465;-56
2023/02/20 09:30:04;;;;;;;3.55;1.05;;;;;;;10.28;42.48;95312.69;4195333;28;20053;-53
2023/02/20 09:32:06;;;;;;;2.67;0.98;;;;;;;10.29;42.26;95302.13;4184051;28;20123;-55
2023/02/20 09:34:08;;;;;;;5.13;0.90;;;;;;;10.38;42.63;95309.09;4191317;28;20135;-57
2023/02/20 09:36:09;;;;;;;5.63;1.13;;;;;;;10.35;42.64;95332.16;4181797;28;20049;-56
2023/02/20 09:38:12;;;;;;;2.33;0.90;;;;;;;10.20;42.79;95311.63;4181750;28;20469;-55
2023/02/20 09:40:14;;;;;;;7.43;0.82;;;;;;;10.24;43.30;95320.84;4181787;28;20053;-57
2023/02/20 09:42:25;;;;;;;3.60;1.00;;;;;;;10.35;42.54;95295.50;4181735;28;20048;-55
2023/02/20 09:44:45;;;;;;;4.85;1.08;;;;;;;10.52;42.53;95326.16;4202650;28;20074;-57
2023/02/20 09:46:49;;;;;;;1.27;0.85;;;;;;;10.43;42.69;95313.91;4213520;28;20440;-57
2023/02/20 09:48:50;;;;;;;3.35;0.90;;;;;;;10.58;42.71;95317.75;4214354;28;20143;-52
2023/02/20 09:50:56;;;;;;;3.40;1.00;;;;;;;10.65;42.74;95302.28;4214430;28;20490;-57
2023/02/20 09:53:14;;;;;;;4.82;1.05;;;;;;;10.57;42.31;95299.53;4196822;28;20050;-55
2023/02/20 09:55:20;;;;;;;2.03;1.20;;;;;;;10.79;41.90;95290.47;4202543;28;20125;-53
2023/02/20 09:57:28;;;;;;;1.35;0.80;;;;;;;10.86;41.50;95307.25;4211980;28;20054;-54
2023/02/20 09:59:42;;;;;;;3.80;0.90;;;;;;;11.05;40.70;95296.66;4213570;28;20506;-53
2023/02/20 10:02:20;;;;;;;2.50;0.88;;;;;;;11.09;39.79;95297.19;4213060;28;20076;-54
2023/02/20 10:04:51;;;;;;;2.08;0.85;;;;;;;11.17;39.66;95314.81;4130252;28;20050;-54